FMEE/RUN METAR and TAF weather

Enter ICAO airport designator
Station Type Date Time Source
FMEE METAR 2021/06/24 05:00 UTC NOAA

FMEE 240500Z AUTO 13015KT CAVOK 23/12 Q1023 TEMPO 11017G27KT


Station Type Date Time Source
FMEE Decoded METAR 2021/06/24 05:00 UTC NOAA

Saint-Denis / Gillot, Reunion (FMEE) 20-53S 055-31E 25M
Jun 24, 2021 - 01:00 AM EDT / 2021.06.24 0500 UTC
Wind: from the SE (130 degrees) at 17 MPH (15 KT):0
Visibility: greater than 7 mile(s):0
Temperature: 73 F (23 C)
Dew Point: 53 F (12 C)
Relative Humidity: 49%
Pressure (altimeter): 30.21 in. Hg (1023 hPa)
ob: FMEE 240500Z AUTO 13015KT CAVOK 23/12 Q1023 TEMPO 11017G27KT
cycle: 5

Station Type Date Time Source
FMEE TAF 2021/06/24 06:13 UTC NOAA

TAF FMEE 240500Z 2406/2512 13016KT CAVOK
BECMG 2509/2511 09005KT

Example: see airport list